createdAt,value
2022-11-22T00:00:02.185Z,98963.50
2022-11-22T00:02:30.090Z,98953.03
2022-11-22T00:04:57.923Z,98943.59
2022-11-22T00:07:27.530Z,98933.03
2022-11-22T00:09:55.490Z,98933.94
2022-11-22T00:12:23.453Z,98931.44
2022-11-22T00:14:56.539Z,98924.50
2022-11-22T00:17:24.819Z,98927.97
2022-11-22T00:19:53.166Z,98927.91
2022-11-22T00:22:21.940Z,98919.28
2022-11-22T00:24:52.959Z,98919.28
2022-11-22T00:27:21.411Z,98910.56
2022-11-22T00:29:49.308Z,98901.28
2022-11-22T00:32:17.582Z,98910.78
2022-11-22T00:34:45.472Z,98902.94
2022-11-22T00:37:13.399Z,98904.59
2022-11-22T00:39:41.438Z,98893.25
2022-11-22T00:42:10.594Z,98895.16
2022-11-22T00:44:38.525Z,98881.44
2022-11-22T00:47:08.405Z,98885.47
2022-11-22T00:49:36.293Z,98888.31
2022-11-22T00:52:04.205Z,98873.53
2022-11-22T00:54:32.037Z,98883.03
2022-11-22T00:56:59.902Z,98878.03
2022-11-22T00:59:29.371Z,98877.19
2022-11-22T01:01:57.397Z,98881.56
2022-11-22T01:04:25.308Z,98877.91
2022-11-22T01:06:56.074Z,98872.00
2022-11-22T01:09:25.598Z,98871.16
2022-11-22T01:11:53.588Z,98877.91
2022-11-22T01:14:21.807Z,98880.81
2022-11-22T01:16:51.227Z,98891.91
2022-11-22T01:19:24.978Z,98888.38
2022-11-22T01:21:52.887Z,98878.03
2022-11-22T01:24:20.839Z,98884.84
2022-11-22T01:26:48.681Z,98886.44
2022-11-22T01:29:16.502Z,98882.03
2022-11-22T01:31:44.384Z,98871.41
2022-11-22T01:34:13.947Z,98879.25
2022-11-22T01:36:42.018Z,98881.75
2022-11-22T01:39:09.905Z,98888.00
2022-11-22T01:41:37.955Z,98875.09
2022-11-22T01:44:23.194Z,98876.53
2022-11-22T01:46:54.115Z,98872.09
2022-11-22T01:49:31.209Z,98865.16
2022-11-22T01:52:03.940Z,98866.81
2022-11-22T01:54:35.499Z,98860.78
2022-11-22T01:57:09.258Z,98868.47
2022-11-22T01:59:40.527Z,98857.25
2022-11-22T02:02:08.839Z,98857.25
2022-11-22T02:04:39.176Z,98856.41
2022-11-22T02:07:12.432Z,98847.53
2022-11-22T02:09:41.902Z,98852.66
2022-11-22T02:12:11.229Z,98844.75
2022-11-22T02:14:41.324Z,98840.31
2022-11-22T02:17:09.286Z,98848.88
2022-11-22T02:19:43.733Z,98847.09
2022-11-22T02:22:26.368Z,98837.69
2022-11-22T02:24:58.616Z,98838.50
2022-11-22T02:27:27.791Z,98838.56
2022-11-22T02:29:55.958Z,98838.56
2022-11-22T02:32:23.912Z,98841.97
2022-11-22T02:34:52.631Z,98831.50
2022-11-22T02:37:25.075Z,98826.91
2022-11-22T02:39:57.148Z,98826.13
2022-11-22T02:42:27.217Z,98820.91
2022-11-22T02:44:55.082Z,98811.22
2022-11-22T02:47:23.065Z,98814.75
2022-11-22T02:49:51.038Z,98816.56
2022-11-22T02:52:21.703Z,98818.94
2022-11-22T02:54:49.619Z,98829.41
2022-11-22T02:57:17.705Z,98831.00
2022-11-22T02:59:46.935Z,98837.16
2022-11-22T03:02:14.804Z,98837.03
2022-11-22T03:04:42.742Z,98858.75
2022-11-22T03:07:10.758Z,98857.91
2022-11-22T03:09:38.646Z,98855.22
2022-11-22T03:12:06.878Z,98854.44
2022-11-22T03:14:34.789Z,98849.13
2022-11-22T03:17:04.053Z,98863.00
2022-11-22T03:19:33.329Z,98865.56
2022-11-22T03:22:01.214Z,98859.41
2022-11-22T03:24:29.203Z,98852.34
2022-11-22T03:26:56.942Z,98852.28
2022-11-22T03:29:24.907Z,98837.59
2022-11-22T03:31:52.757Z,98850.44
2022-11-22T03:34:24.633Z,98844.25
2022-11-22T03:36:52.581Z,98863.19
2022-11-22T03:39:20.586Z,98852.78
2022-11-22T03:41:48.532Z,98845.72
2022-11-22T03:44:16.440Z,98851.78
2022-11-22T03:46:44.202Z,98862.19
2022-11-22T03:49:12.576Z,98856.97
2022-11-22T03:51:41.753Z,98856.78
2022-11-22T03:54:09.758Z,98853.97
2022-11-22T03:56:37.507Z,98855.03
2022-11-22T03:59:05.452Z,98852.13
2022-11-22T04:01:33.372Z,98863.38
2022-11-22T04:04:01.379Z,98865.03
2022-11-22T04:06:29.362Z,98853.66
2022-11-22T04:08:58.682Z,98853.72
2022-11-22T04:11:26.566Z,98841.28
2022-11-22T04:14:11.770Z,98846.47
2022-11-22T04:16:39.712Z,98854.19
2022-11-22T04:19:16.753Z,98857.44
2022-11-22T04:21:43.681Z,98846.91
2022-11-22T04:24:30.414Z,98857.38
2022-11-22T04:26:58.781Z,98858.91
2022-11-22T04:29:27.850Z,98860.47
2022-11-22T04:32:13.499Z,98860.34
2022-11-22T04:34:41.490Z,98868.16
2022-11-22T04:37:09.930Z,98868.16
2022-11-22T04:39:39.138Z,98870.53
2022-11-22T04:42:24.807Z,98870.66
2022-11-22T04:44:52.883Z,98866.03
2022-11-22T04:47:38.953Z,98868.53
2022-11-22T04:50:29.986Z,98861.78
2022-11-22T04:52:57.794Z,98872.97
2022-11-22T04:55:27.244Z,98859.88
2022-11-22T04:57:59.540Z,98862.38
2022-11-22T05:00:28.909Z,98862.38
2022-11-22T05:02:56.919Z,98869.31
2022-11-22T05:05:24.994Z,98852.03
2022-11-22T05:07:53.031Z,98870.75
2022-11-22T05:10:26.066Z,98867.94
2022-11-22T05:12:56.626Z,98872.47
2022-11-22T05:15:24.606Z,98869.56
2022-11-22T05:17:52.467Z,98870.34
2022-11-22T05:20:20.505Z,98858.03
2022-11-22T05:23:05.602Z,98859.81
2022-11-22T05:25:33.357Z,98868.38
2022-11-22T05:28:02.498Z,98868.25
2022-11-22T05:30:30.306Z,98867.22
2022-11-22T05:32:58.210Z,98860.13
2022-11-22T05:35:26.062Z,98870.13
2022-11-22T05:37:53.917Z,98872.81
2022-11-22T05:40:21.847Z,98875.38
2022-11-22T05:42:49.721Z,98872.81
2022-11-22T05:45:18.963Z,98881.53
2022-11-22T05:47:47.981Z,98868.41
2022-11-22T05:50:16.065Z,98863.19
2022-11-22T05:52:44.053Z,98866.66
2022-11-22T05:55:11.891Z,98868.16
2022-11-22T05:57:39.780Z,98878.06
2022-11-22T06:00:08.842Z,98874.50
2022-11-22T06:02:38.143Z,98878.44
2022-11-22T06:05:06.496Z,98873.97
2022-11-22T06:07:34.279Z,98878.94
2022-11-22T06:10:02.113Z,98871.28
2022-11-22T06:12:30.049Z,98871.19
2022-11-22T06:14:57.882Z,98867.47
2022-11-22T06:17:25.720Z,98874.47
2022-11-22T06:19:55.020Z,98868.38
2022-11-22T06:22:23.982Z,98871.50
2022-11-22T06:24:51.982Z,98867.13
2022-11-22T06:27:19.990Z,98867.31
2022-11-22T06:29:47.973Z,98881.00
2022-11-22T06:32:16.002Z,98874.53
2022-11-22T06:34:44.586Z,98875.41
2022-11-22T06:37:15.874Z,98873.94
2022-11-22T06:39:43.691Z,98878.09
2022-11-22T06:42:11.550Z,98869.16
2022-11-22T06:44:39.486Z,98876.41
2022-11-22T06:47:08.323Z,98881.88
2022-11-22T06:49:36.198Z,98881.88
2022-11-22T06:52:04.084Z,98883.63
2022-11-22T06:54:33.292Z,98881.09
2022-11-22T06:57:01.256Z,98885.91
2022-11-22T06:59:29.273Z,98895.63
2022-11-22T07:02:02.881Z,98886.66
2022-11-22T07:04:33.844Z,98889.38
2022-11-22T07:07:01.779Z,98875.69
2022-11-22T07:09:30.108Z,98889.16
2022-11-22T07:11:59.433Z,98889.09
2022-11-22T07:14:27.395Z,98890.00
2022-11-22T07:16:55.284Z,98892.41
2022-11-22T07:19:23.081Z,98902.50
2022-11-22T07:21:50.970Z,98905.25
2022-11-22T07:24:18.862Z,98904.28
2022-11-22T07:26:46.695Z,98909.44
2022-11-22T07:29:15.959Z,98908.66
2022-11-22T07:31:46.407Z,98914.25
2022-11-22T07:34:14.556Z,98926.72
2022-11-22T07:36:42.468Z,98920.47
2022-11-22T07:39:12.985Z,98930.00
2022-11-22T07:41:40.853Z,98925.66
2022-11-22T07:44:08.705Z,98933.69
2022-11-22T07:46:37.935Z,98941.47
2022-11-22T07:49:05.846Z,98936.81
2022-11-22T07:51:33.753Z,98930.06
2022-11-22T07:54:01.638Z,98935.03
2022-11-22T07:56:29.473Z,98940.50
2022-11-22T07:58:57.322Z,98932.41
2022-11-22T08:01:25.257Z,98936.53
2022-11-22T08:03:54.576Z,98934.25
2022-11-22T08:06:22.351Z,98932.91
2022-11-22T08:08:50.223Z,98936.53
2022-11-22T08:11:20.884Z,98926.91
2022-11-22T08:13:48.890Z,98924.47
2022-11-22T08:16:17.952Z,98920.50
2022-11-22T08:18:48.848Z,98909.72
2022-11-22T08:21:19.633Z,98923.50
2022-11-22T08:23:50.033Z,98929.50
2022-11-22T08:26:21.148Z,98924.97
2022-11-22T08:28:48.957Z,98919.78
2022-11-22T08:31:23.043Z,98901.16
2022-11-22T08:33:56.237Z,98904.75
2022-11-22T08:36:25.710Z,98891.00
2022-11-22T08:38:53.520Z,98912.69
2022-11-22T08:41:21.887Z,98926.72
2022-11-22T08:43:50.918Z,98922.91
2022-11-22T08:46:19.106Z,98926.59
2022-11-22T08:48:47.734Z,98923.06
2022-11-22T08:51:15.918Z,98921.28
2022-11-22T08:53:45.604Z,98932.41
2022-11-22T08:56:16.095Z,98936.75
2022-11-22T08:58:44.126Z,98923.19
2022-11-22T09:01:14.136Z,98930.97
2022-11-22T09:03:42.775Z,98934.03
2022-11-22T09:11:50.691Z,98946.38
2022-11-22T09:14:18.589Z,98943.16
2022-11-22T09:16:46.358Z,98953.00
2022-11-22T09:19:16.929Z,98946.66
2022-11-22T09:21:47.140Z,98952.41
2022-11-22T09:24:20.915Z,98951.25
2022-11-22T09:26:49.330Z,98949.47
2022-11-22T09:29:17.152Z,98951.41
2022-11-22T09:31:45.154Z,98950.72
2022-11-22T09:34:13.179Z,98943.69
2022-11-22T09:36:40.960Z,98951.44
2022-11-22T09:39:10.138Z,98950.50
2022-11-22T09:42:11.205Z,98950.94
2022-11-22T09:45:03.125Z,98958.53
2022-11-22T09:47:40.579Z,98967.97
2022-11-22T09:50:21.854Z,98977.78
2022-11-22T09:52:55.086Z,98980.41
2022-11-22T09:55:28.907Z,98982.75
2022-11-22T09:58:10.254Z,98980.91
2022-11-22T10:00:38.336Z,98979.91
2022-11-22T10:03:18.373Z,98988.25
2022-11-22T10:05:56.380Z,98988.44
2022-11-22T10:08:36.251Z,98993.06
2022-11-22T10:11:15.652Z,98984.41
2022-11-22T10:13:51.570Z,98987.44
2022-11-22T10:16:33.674Z,98989.97
2022-11-22T10:19:11.755Z,98973.56
2022-11-22T10:21:42.601Z,98994.72
2022-11-22T10:24:16.345Z,98990.31
2022-11-22T10:26:46.570Z,98999.69
2022-11-22T10:29:25.591Z,98988.31
2022-11-22T10:31:58.944Z,98987.78
2022-11-22T10:34:39.406Z,98988.16
2022-11-22T10:37:19.479Z,98973.75
2022-11-22T10:40:09.314Z,98984.28
2022-11-22T10:43:02.226Z,98966.66
2022-11-22T10:45:36.889Z,98982.97
2022-11-22T10:48:17.381Z,99002.72
2022-11-22T10:50:56.768Z,99002.50
2022-11-22T10:53:40.775Z,99046.25
2022-11-22T10:56:19.618Z,99085.44
2022-11-22T10:59:01.546Z,99154.31
2022-11-22T11:01:38.960Z,99227.34
2022-11-22T11:04:16.842Z,99254.38
2022-11-22T11:12:38.268Z,99174.47
2022-11-22T11:15:16.088Z,99151.63
2022-11-22T11:17:48.321Z,99149.25
2022-11-22T11:20:24.039Z,99136.31
2022-11-22T11:23:13.765Z,99139.22
2022-11-22T11:25:43.296Z,99139.66
2022-11-22T11:28:21.382Z,99137.19
2022-11-22T11:30:53.692Z,99143.03
2022-11-22T11:33:27.181Z,99131.03
2022-11-22T11:36:09.821Z,99126.28
2022-11-22T11:38:49.348Z,99110.41
2022-11-22T11:41:20.093Z,99093.06
2022-11-22T11:43:48.581Z,99079.56
2022-11-22T11:46:19.172Z,99062.53
2022-11-22T11:48:49.330Z,99040.78
2022-11-22T11:51:21.683Z,99037.47
2022-11-22T11:53:57.951Z,99054.94
2022-11-22T11:56:33.273Z,99056.47
2022-11-22T11:59:08.388Z,99058.50
2022-11-22T12:01:39.126Z,99076.56
2022-11-22T12:04:21.542Z,99064.16
2022-11-22T12:07:03.810Z,99043.25
2022-11-22T12:09:36.747Z,99035.06
2022-11-22T12:12:32.348Z,99013.41
2022-11-22T12:15:11.715Z,99004.78
2022-11-22T12:18:05.434Z,99011.38
2022-11-22T12:20:51.373Z,99011.44
2022-11-22T12:23:25.501Z,99003.13
2022-11-22T12:25:57.205Z,99030.25
2022-11-22T12:28:27.352Z,99032.97
2022-11-22T12:31:00.902Z,99019.97
2022-11-22T12:33:33.348Z,99027.59
2022-11-22T12:36:05.038Z,99033.75
2022-11-22T12:38:38.367Z,99029.38
2022-11-22T12:41:12.453Z,99016.91
2022-11-22T12:43:46.433Z,99010.88
2022-11-22T12:46:26.045Z,99011.72
2022-11-22T12:48:57.868Z,99005.06
2022-11-22T12:51:35.632Z,99006.38
2022-11-22T12:54:11.893Z,99006.53
2022-11-22T12:56:45.348Z,99013.50
2022-11-22T12:59:25.964Z,99016.91
2022-11-22T13:02:01.596Z,99023.13
2022-11-22T13:04:36.104Z,99018.25
2022-11-22T13:07:16.058Z,99023.00
2022-11-22T13:09:51.352Z,99016.91
2022-11-22T13:12:29.537Z,98999.22
2022-11-22T13:15:00.290Z,99001.94
2022-11-22T13:17:34.011Z,98976.53
2022-11-22T13:20:06.723Z,98967.19
2022-11-22T13:22:46.697Z,98974.50
2022-11-22T13:25:32.380Z,98958.94
2022-11-22T13:28:02.682Z,98952.22
2022-11-22T13:30:33.061Z,98936.34
2022-11-22T13:33:02.304Z,98930.03
2022-11-22T13:35:33.247Z,98925.78
2022-11-22T13:38:06.485Z,98889.34
2022-11-22T13:40:44.798Z,98906.25
2022-11-22T13:43:50.688Z,98894.19
2022-11-22T13:47:04.845Z,98874.31
2022-11-22T13:49:48.896Z,98864.28
2022-11-22T13:52:31.096Z,98874.91
2022-11-22T13:55:40.445Z,98868.19
2022-11-22T13:58:54.572Z,98873.75
2022-11-22T14:01:57.078Z,98889.78
2022-11-22T14:04:39.911Z,98897.59
2022-11-22T14:07:39.453Z,98892.25
2022-11-22T14:10:28.722Z,98884.34
2022-11-22T14:13:08.598Z,98887.56
2022-11-22T14:15:58.337Z,98887.00
2022-11-22T14:18:52.820Z,98866.47
2022-11-22T14:21:41.482Z,98861.41
2022-11-22T14:24:17.406Z,98876.03
2022-11-22T14:27:00.848Z,98882.06
2022-11-22T14:29:58.433Z,98886.03
2022-11-22T14:32:39.834Z,98891.66
2022-11-22T14:35:29.907Z,98886.66
2022-11-22T14:38:02.016Z,98923.75
2022-11-22T14:40:36.293Z,98925.94
2022-11-22T14:43:33.835Z,98921.50
2022-11-22T14:46:30.567Z,98909.13
2022-11-22T14:49:37.074Z,98909.03
2022-11-22T14:52:14.402Z,98898.59
2022-11-22T14:54:47.841Z,98912.88
2022-11-22T14:57:20.297Z,98918.47
2022-11-22T15:00:09.023Z,98921.78
2022-11-22T15:03:18.402Z,98911.34
2022-11-22T15:09:20.997Z,98907.41
2022-11-22T15:09:46.477Z,98909.47
2022-11-22T15:12:18.397Z,98916.91
2022-11-22T15:57:26.947Z,98941.13
2022-11-22T15:59:56.023Z,98941.06
2022-11-22T16:02:27.733Z,98949.88
2022-11-22T16:06:10.536Z,98953.28
2022-11-22T16:07:50.142Z,98953.94
2022-11-22T16:10:21.408Z,98947.34
2022-11-22T16:12:49.436Z,98940.53
2022-11-22T16:15:30.721Z,98936.50
2022-11-22T16:18:08.652Z,98933.09
2022-11-22T16:20:39.889Z,98925.28
2022-11-22T16:23:19.974Z,98925.34
2022-11-22T16:25:50.617Z,98932.72
2022-11-22T16:28:36.091Z,98938.84
2022-11-22T16:31:16.490Z,98936.97
2022-11-22T16:33:48.364Z,98941.56
2022-11-22T16:36:19.598Z,98949.88
2022-11-22T16:38:48.181Z,98948.09
2022-11-22T16:41:20.308Z,98949.81
2022-11-22T16:43:52.067Z,98958.53
2022-11-22T16:46:21.014Z,98949.97
2022-11-22T16:48:49.715Z,98947.19
2022-11-22T16:51:23.954Z,98930.78
2022-11-22T16:53:54.752Z,98933.09
2022-11-22T16:56:24.279Z,98923.56
2022-11-22T16:58:56.459Z,98918.00
2022-11-22T17:01:26.891Z,98915.06
2022-11-22T17:03:57.063Z,98908.97
2022-11-22T17:06:30.311Z,98895.16
2022-11-22T17:09:02.387Z,98906.25
2022-11-22T17:11:32.610Z,98907.78
2022-11-22T17:14:01.052Z,98914.22
2022-11-22T17:16:29.078Z,98926.38
2022-11-22T17:18:59.339Z,98944.22
2022-11-22T17:21:35.830Z,98944.41
2022-11-22T17:24:07.426Z,98959.41
2022-11-22T17:26:35.653Z,98957.88
2022-11-22T17:29:04.544Z,98968.72
2022-11-22T17:31:32.576Z,98976.63
2022-11-22T17:34:01.570Z,98978.66
2022-11-22T17:36:32.684Z,98989.19
2022-11-22T17:39:12.644Z,99001.66
2022-11-22T17:41:40.591Z,99007.31
2022-11-22T17:44:09.199Z,99018.78
2022-11-22T17:46:39.850Z,99013.34
2022-11-22T17:49:14.157Z,99016.75
2022-11-22T17:51:44.926Z,99031.06
2022-11-22T17:54:12.961Z,99039.81
2022-11-22T17:56:40.805Z,99035.34
2022-11-22T17:59:08.634Z,99034.41
2022-11-22T18:01:38.613Z,99030.69
2022-11-22T18:04:06.748Z,99010.88
2022-11-22T18:06:34.679Z,99037.81
2022-11-22T18:09:04.140Z,99020.31
2022-11-22T18:11:32.748Z,99028.13
2022-11-22T18:14:01.122Z,99020.78
2022-11-22T18:16:30.065Z,99021.88
2022-11-22T18:18:59.042Z,99034.41
2022-11-22T18:21:29.440Z,99029.91
2022-11-22T18:23:58.182Z,99040.38
2022-11-22T18:26:45.168Z,99033.69
2022-11-22T18:32:02.375Z,99031.03
2022-11-22T18:34:33.549Z,99025.00
2022-11-22T18:37:03.448Z,99029.69
2022-11-22T18:39:40.482Z,99040.66
2022-11-22T18:42:17.156Z,99033.44
2022-11-22T18:44:49.088Z,99023.75
2022-11-22T18:47:17.891Z,99022.06
2022-11-22T18:49:49.159Z,99017.41
2022-11-22T18:52:18.167Z,99017.19
2022-11-22T18:54:49.778Z,99026.16
2022-11-22T18:57:38.060Z,99014.09
2022-11-22T19:00:06.905Z,99033.97
2022-11-22T19:02:35.018Z,99027.88
2022-11-22T19:05:04.419Z,99040.09
2022-11-22T19:07:32.276Z,99044.59
2022-11-22T19:10:01.307Z,99053.50
2022-11-22T19:12:30.735Z,99050.63
2022-11-22T19:14:58.794Z,99054.03
2022-11-22T19:17:26.876Z,99049.00
2022-11-22T19:19:59.004Z,99049.63
2022-11-22T19:22:27.623Z,99050.78
2022-11-22T19:24:55.517Z,99043.50
2022-11-22T19:27:24.219Z,99040.09
2022-11-22T19:29:53.410Z,99041.97
2022-11-22T19:32:24.883Z,99038.25
2022-11-22T19:34:52.712Z,99022.19
2022-11-22T19:37:20.635Z,99026.94
2022-11-22T19:39:49.104Z,99039.25
2022-11-22T19:42:17.837Z,99042.81
2022-11-22T19:44:46.101Z,99048.00
2022-11-22T19:47:16.575Z,99040.09
2022-11-22T19:49:45.626Z,99051.47
2022-11-22T19:52:13.576Z,99063.16
2022-11-22T19:54:44.078Z,99105.75
2022-11-22T19:57:12.199Z,99159.78
2022-11-22T19:59:43.986Z,99208.59
2022-11-22T20:02:13.454Z,99272.97
2022-11-22T20:04:43.949Z,99332.63
2022-11-22T20:07:12.828Z,99330.16
2022-11-22T20:09:42.647Z,99331.84
2022-11-22T20:12:22.344Z,99335.34
2022-11-22T20:14:50.454Z,99338.75
2022-11-22T20:17:19.363Z,99332.63
2022-11-22T20:19:48.699Z,99333.28
2022-11-22T20:22:16.540Z,99323.75
2022-11-22T20:24:45.417Z,99321.06
2022-11-22T20:27:13.970Z,99318.44
2022-11-22T20:29:42.003Z,99314.22
2022-11-22T20:32:11.722Z,99304.75
2022-11-22T20:34:39.551Z,99313.44
2022-11-22T20:37:08.823Z,99309.88
2022-11-22T20:39:37.504Z,99307.25
2022-11-22T20:42:33.035Z,99315.06
2022-11-22T20:44:54.177Z,99311.72
2022-11-22T20:47:22.064Z,99312.59
2022-11-22T20:49:50.225Z,99303.97
2022-11-22T20:52:19.511Z,99296.88
2022-11-22T20:54:47.507Z,99292.59
2022-11-22T20:57:15.307Z,99296.09
2022-11-22T20:59:43.413Z,99288.06
2022-11-22T21:02:29.236Z,99279.25
2022-11-22T21:05:12.144Z,99273.19
2022-11-22T21:07:41.592Z,99263.44
2022-11-22T21:10:10.074Z,99271.06
2022-11-22T21:12:38.320Z,99264.88
2022-11-22T21:15:07.218Z,99255.09
2022-11-22T21:17:50.136Z,99253.66
2022-11-22T21:20:30.287Z,99253.44
2022-11-22T21:23:12.813Z,99247.13
2022-11-22T21:25:42.235Z,99236.50
2022-11-22T21:28:10.281Z,99252.66
2022-11-22T21:30:38.144Z,99247.53
2022-11-22T21:33:06.029Z,99233.44
2022-11-22T21:35:33.988Z,99224.78
2022-11-22T21:38:03.260Z,99225.75
2022-11-22T21:40:31.201Z,99218.66
2022-11-22T21:42:59.373Z,99214.88
2022-11-22T21:45:27.459Z,99199.19
2022-11-22T21:47:55.543Z,99192.13
2022-11-22T21:50:23.477Z,99198.19
2022-11-22T21:52:51.556Z,99180.75
2022-11-22T21:55:22.356Z,99170.31
2022-11-22T21:57:55.718Z,99181.22
2022-11-22T22:00:33.035Z,99174.03
2022-11-22T22:03:01.744Z,99172.31
2022-11-22T22:05:29.712Z,99174.88
2022-11-22T22:07:57.658Z,99176.38
2022-11-22T22:10:27.026Z,99172.94
2022-11-22T22:12:54.956Z,99172.03
2022-11-22T22:15:23.791Z,99162.56
2022-11-22T22:17:53.556Z,99163.28
2022-11-22T22:20:21.678Z,99161.72
2022-11-22T22:22:51.756Z,99162.44
2022-11-22T22:25:22.716Z,99148.41
2022-11-22T22:27:51.939Z,99150.19
2022-11-22T22:30:20.166Z,99152.75
2022-11-22T22:32:48.111Z,99141.66
2022-11-22T22:35:17.351Z,99144.16
2022-11-22T22:37:46.367Z,99138.88
2022-11-22T22:40:14.304Z,99130.06
2022-11-22T22:42:42.221Z,99129.75
2022-11-22T22:45:12.891Z,99131.47
2022-11-22T22:47:40.842Z,99127.28
2022-11-22T22:50:09.217Z,99127.06
2022-11-22T22:52:39.020Z,99121.63
2022-11-22T22:55:08.048Z,99130.53
2022-11-22T22:57:37.907Z,99125.19
2022-11-22T23:00:06.375Z,99128.59
2022-11-22T23:02:35.598Z,99121.56
2022-11-22T23:05:03.712Z,99120.00
2022-11-22T23:07:31.803Z,99123.06
2022-11-22T23:09:59.756Z,99114.09
2022-11-22T23:12:27.777Z,99119.38
2022-11-22T23:14:55.724Z,99109.75
2022-11-22T23:17:25.174Z,99099.22
2022-11-22T23:19:54.577Z,99114.88
2022-11-22T23:22:25.944Z,99109.13
2022-11-22T23:24:53.977Z,99104.19
2022-11-22T23:27:21.863Z,99105.88
2022-11-22T23:29:49.607Z,99105.03
2022-11-22T23:32:17.552Z,99098.06
2022-11-22T23:34:45.465Z,99101.41
2022-11-22T23:37:14.639Z,99105.72
2022-11-22T23:39:42.901Z,99097.84
2022-11-22T23:42:11.214Z,99108.13
2022-11-22T23:44:39.067Z,99103.38
2022-11-22T23:47:07.075Z,99106.50
2022-11-22T23:49:34.899Z,99097.75
2022-11-22T23:52:03.818Z,99098.44
2022-11-22T23:54:34.043Z,99106.16
2022-11-22T23:57:01.982Z,99108.63
2022-11-22T23:59:30.097Z,99102.78
